British Tenacity — MDTE9 — position and weather

sailwx.info

Track history (hours):
 
Tides and Currents Weather Stations Pressure Air Temp Water Temp Dewpoint Dewpoint Depression Visibility Wind Speed Wind Dir Waves Ship Positions

British Tenacity

Last reported at 2017-Jun-13 03:26 UTC. Time now 2017-Jun-27 07:15 UTC.
Position N 09°37' W 079°57'.
Warning: this ship's position is 14 days out of date.

Type: Ship (hazmat cat C). MMSI: 235825000.

Date/timePositionNaut miles runAvg speedWind from/ knotsBaromVisibWave heightAir tempDewpointWater temp
2017-Jun-13 03:26N 09°37' W 079°57'614.8
2017-Jun-13 03:00N 09°31' W 079°55'713.8
2017-Jun-13 02:30N 09°24' W 079°55'3 4.8
2017-Jun-13 01:58N 09°22' W 079°55'0 0.1
2017-Jun-13 01:25N 09°22' W 079°55'0 0.0
2017-Jun-13 01:01N 09°22' W 079°55'0 0.0
2017-Jun-13 00:30N 09°22' W 079°55'0 0.1
2017-Jun-13 00:00N 09°22' W 079°55'0 0.0
2017-Jun-12 23:30N 09°22' W 079°55'0 0.0
2017-Jun-12 23:00N 09°22' W 079°55'0 0.0
2017-Jun-12 22:30N 09°22' W 079°55'0 0.0
2017-Jun-12 22:00N 09°22' W 079°55'0 0.0
2017-Jun-12 21:30N 09°22' W 079°55'0 0.0
2017-Jun-12 20:57N 09°22' W 079°55'0 0.0
2017-Jun-12 20:30N 09°22' W 079°55'0 0.1
2017-Jun-12 20:00N 09°22' W 079°55'0 0.1
2017-Jun-12 19:27N 09°22' W 079°55'0 0.1
2017-Jun-12 18:57N 09°22' W 079°56'0 0.1
2017-Jun-12 18:30N 09°22' W 079°56'0 0.0
2017-Jun-12 18:00N 09°22' W 079°56'0 0.0
2017-Jun-12 17:30N 09°22' W 079°56'0 0.0
2017-Jun-12 17:00N 09°22' W 079°56'0 0.1
2017-Jun-12 16:30N 09°22' W 079°56'0 0.1
2017-Jun-12 16:00N 09°22' W 079°56'0 0.1
2017-Jun-12 15:27N 09°22' W 079°56'0 0.1
2017-Jun-12 15:00N 09°22' W 079°56'0 0.0
2017-Jun-12 14:27N 09°22' W 079°56'0 0.0
2017-Jun-12 13:30N 09°22' W 079°56'0 0.0
2017-Jun-12 12:51N 09°22' W 079°56'0 0.0
2017-Jun-12 12:30N 09°22' W 079°56'0 0.0
2017-Jun-12 12:00N 09°22' W 079°56'0 0.0
2017-Jun-12 11:30N 09°22' W 079°56'0 0.0
2017-Jun-12 10:51N 09°22' W 079°56'0 0.0
2017-Jun-12 10:27N 09°22' W 079°56'0 0.0
2017-Jun-12 09:57N 09°22' W 079°56'0 0.0
2017-Jun-12 09:30N 09°22' W 079°56'0 0.1
2017-Jun-12 08:57N 09°22' W 079°56'0 0.1
2017-Jun-12 08:30N 09°22' W 079°56'0 0.0
2017-Jun-12 07:57N 09°22' W 079°56'0 0.0
2017-Jun-12 07:09N 09°22' W 079°56'0 0.1
2017-Jun-12 06:54N 09°22' W 079°56'0 0.1
2017-Jun-12 06:24N 09°22' W 079°56'0 0.0
2017-Jun-12 05:57N 09°22' W 079°56'0 0.0
2017-Jun-12 05:30N 09°22' W 079°56'0 0.0
2017-Jun-12 05:00N 09°22' W 079°55'0 0.1
2017-Jun-12 04:21N 09°22' W 079°55'0 0.1
2017-Jun-12 04:00N 09°22' W 079°55'0 0.0
2017-Jun-12 03:30N 09°22' W 079°55'0 0.0
2017-Jun-12 02:54N 09°22' W 079°55'0 0.1
2017-Jun-12 02:24N 09°22' W 079°55'0 0.1
2017-Jun-12 02:00N 09°22' W 079°55'0 0.1
2017-Jun-12 01:24N 09°22' W 079°55'0 0.0
2017-Jun-12 01:00N 09°22' W 079°55'0 0.0
2017-Jun-12 00:27N 09°22' W 079°55'0 0.0
2017-Jun-12 00:00N 09°22' W 079°55'0 0.1
2017-Jun-11 23:30N 09°22' W 079°55'0 0.0
2017-Jun-11 23:00N 09°22' W 079°55'0 0.0
2017-Jun-11 22:24N 09°22' W 079°55'0 0.1
2017-Jun-11 22:00N 09°22' W 079°55'0 0.0
2017-Jun-11 21:30N 09°22' W 079°55'0 0.0
2017-Jun-11 21:00N 09°22' W 079°55'0 0.1
2017-Jun-11 20:24N 09°22' W 079°55'0 0.1
2017-Jun-11 20:00N 09°22' W 079°55'0 0.1
2017-Jun-11 19:29N 09°22' W 079°55'0 0.0
2017-Jun-11 18:59N 09°22' W 079°55'0 0.1
2017-Jun-11 18:30N 09°22' W 079°56'1 2.4
2017-Jun-11 18:00N 09°20' W 079°55'3 6.6
2017-Jun-11 17:30N 09°17' W 079°55'1 1.2
2017-Jun-11 17:00N 09°17' W 079°55'0 0.5
2017-Jun-11 16:27N 09°16' W 079°55'0 0.7
2017-Jun-11 16:00N 09°16' W 079°55'1 2.4
2017-Jun-11 15:29N 09°15' W 079°55'  
Track history (hours):
 
Tides and Currents Weather Stations Pressure Air Temp Water Temp Dewpoint Dewpoint Depression Visibility Wind Speed Wind Dir Waves Ship Positions

British Tenacity

Last reported at 2017-Jun-13 03:26 UTC. Time now 2017-Jun-27 07:16 UTC.
Position N 09°37' W 079°57'.
Warning: this ship's position is 14 days out of date.

Type: Ship (hazmat cat C). MMSI: 235825000.

Date/timePositionNaut miles runAvg speedWind from/ knotsBaromVisibWave heightAir tempDewpointWater temp
2017-Jun-13 03:26N 09°37' W 079°57'614.8
2017-Jun-13 03:00N 09°31' W 079°55'713.8
2017-Jun-13 02:30N 09°24' W 079°55'3 4.8
2017-Jun-13 01:58N 09°22' W 079°55'0 0.1
2017-Jun-13 01:25N 09°22' W 079°55'0 0.0
2017-Jun-13 01:01N 09°22' W 079°55'0 0.0
2017-Jun-13 00:30N 09°22' W 079°55'0 0.1
2017-Jun-13 00:00N 09°22' W 079°55'0 0.0
2017-Jun-12 23:30N 09°22' W 079°55'0 0.0
2017-Jun-12 23:00N 09°22' W 079°55'0 0.0
2017-Jun-12 22:30N 09°22' W 079°55'0 0.0
2017-Jun-12 22:00N 09°22' W 079°55'0 0.0
2017-Jun-12 21:30N 09°22' W 079°55'0 0.0
2017-Jun-12 20:57N 09°22' W 079°55'0 0.0
2017-Jun-12 20:30N 09°22' W 079°55'0 0.1
2017-Jun-12 20:00N 09°22' W 079°55'0 0.1
2017-Jun-12 19:27N 09°22' W 079°55'0 0.1
2017-Jun-12 18:57N 09°22' W 079°56'0 0.1
2017-Jun-12 18:30N 09°22' W 079°56'0 0.0
2017-Jun-12 18:00N 09°22' W 079°56'0 0.0
2017-Jun-12 17:30N 09°22' W 079°56'0 0.0
2017-Jun-12 17:00N 09°22' W 079°56'0 0.1
2017-Jun-12 16:30N 09°22' W 079°56'0 0.1
2017-Jun-12 16:00N 09°22' W 079°56'0 0.1
2017-Jun-12 15:27N 09°22' W 079°56'0 0.1
2017-Jun-12 15:00N 09°22' W 079°56'0 0.0
2017-Jun-12 14:27N 09°22' W 079°56'0 0.0
2017-Jun-12 13:30N 09°22' W 079°56'0 0.0
2017-Jun-12 12:51N 09°22' W 079°56'0 0.0
2017-Jun-12 12:30N 09°22' W 079°56'0 0.0
2017-Jun-12 12:00N 09°22' W 079°56'0 0.0
2017-Jun-12 11:30N 09°22' W 079°56'0 0.0
2017-Jun-12 10:51N 09°22' W 079°56'0 0.0
2017-Jun-12 10:27N 09°22' W 079°56'0 0.0
2017-Jun-12 09:57N 09°22' W 079°56'0 0.0
2017-Jun-12 09:30N 09°22' W 079°56'0 0.1
2017-Jun-12 08:57N 09°22' W 079°56'0 0.1
2017-Jun-12 08:30N 09°22' W 079°56'0 0.0
2017-Jun-12 07:57N 09°22' W 079°56'0 0.0
2017-Jun-12 07:09N 09°22' W 079°56'0 0.1
2017-Jun-12 06:54N 09°22' W 079°56'0 0.1
2017-Jun-12 06:24N 09°22' W 079°56'0 0.0
2017-Jun-12 05:57N 09°22' W 079°56'0 0.0
2017-Jun-12 05:30N 09°22' W 079°56'0 0.0
2017-Jun-12 05:00N 09°22' W 079°55'0 0.1
2017-Jun-12 04:21N 09°22' W 079°55'0 0.1
2017-Jun-12 04:00N 09°22' W 079°55'0 0.0
2017-Jun-12 03:30N 09°22' W 079°55'0 0.0
2017-Jun-12 02:54N 09°22' W 079°55'0 0.1
2017-Jun-12 02:24N 09°22' W 079°55'0 0.1
2017-Jun-12 02:00N 09°22' W 079°55'0 0.1
2017-Jun-12 01:24N 09°22' W 079°55'0 0.0
2017-Jun-12 01:00N 09°22' W 079°55'0 0.0
2017-Jun-12 00:27N 09°22' W 079°55'0 0.0
2017-Jun-12 00:00N 09°22' W 079°55'0 0.1
2017-Jun-11 23:30N 09°22' W 079°55'0 0.0
2017-Jun-11 23:00N 09°22' W 079°55'0 0.0
2017-Jun-11 22:24N 09°22' W 079°55'0 0.1
2017-Jun-11 22:00N 09°22' W 079°55'0 0.0
2017-Jun-11 21:30N 09°22' W 079°55'0 0.0
2017-Jun-11 21:00N 09°22' W 079°55'0 0.1
2017-Jun-11 20:24N 09°22' W 079°55'0 0.1
2017-Jun-11 20:00N 09°22' W 079°55'0 0.1
2017-Jun-11 19:29N 09°22' W 079°55'0 0.0
2017-Jun-11 18:59N 09°22' W 079°55'0 0.1
2017-Jun-11 18:30N 09°22' W 079°56'1 2.4
2017-Jun-11 18:00N 09°20' W 079°55'3 6.6
2017-Jun-11 17:30N 09°17' W 079°55'1 1.2
2017-Jun-11 17:00N 09°17' W 079°55'0 0.5
2017-Jun-11 16:27N 09°16' W 079°55'0 0.7
2017-Jun-11 16:00N 09°16' W 079°55'1 2.4
2017-Jun-11 15:29N 09°15' W 079°55'  

Dump ship's entire track history